sensor_id;sensor_type;location;lat;lon;timestamp;temperature;humidity
51725;DHT22;37801;53.224;6.552;2022-07-29T00:00:03;15.50;99.90
51725;DHT22;37801;53.224;6.552;2022-07-29T00:02:29;15.50;99.90
51725;DHT22;37801;53.224;6.552;2022-07-29T00:04:57;15.60;99.90
51725;DHT22;37801;53.224;6.552;2022-07-29T00:07:23;15.60;99.90
51725;DHT22;37801;53.224;6.552;2022-07-29T00:09:48;15.50;99.90
51725;DHT22;37801;53.224;6.552;2022-07-29T00:12:14;15.60;99.90
51725;DHT22;37801;53.224;6.552;2022-07-29T00:14:40;15.60;99.90
51725;DHT22;37801;53.224;6.552;2022-07-29T00:17:05;15.60;99.90
51725;DHT22;37801;53.224;6.552;2022-07-29T00:19:31;15.60;99.90
51725;DHT22;37801;53.224;6.552;2022-07-29T00:21:57;15.60;99.90
51725;DHT22;37801;53.224;6.552;2022-07-29T00:24:22;15.60;99.90
51725;DHT22;37801;53.224;6.552;2022-07-29T00:26:48;15.60;99.90
51725;DHT22;37801;53.224;6.552;2022-07-29T00:29:14;15.60;99.90
51725;DHT22;37801;53.224;6.552;2022-07-29T00:31:40;15.60;99.90
51725;DHT22;37801;53.224;6.552;2022-07-29T00:34:05;15.60;99.90
51725;DHT22;37801;53.224;6.552;2022-07-29T00:36:51;15.60;99.90
51725;DHT22;37801;53.224;6.552;2022-07-29T00:39:17;15.60;99.90
51725;DHT22;37801;53.224;6.552;2022-07-29T00:41:42;15.60;99.90
51725;DHT22;37801;53.224;6.552;2022-07-29T00:44:08;15.60;99.90
51725;DHT22;37801;53.224;6.552;2022-07-29T00:46:34;15.70;99.90
51725;DHT22;37801;53.224;6.552;2022-07-29T00:48:59;15.70;99.90
51725;DHT22;37801;53.224;6.552;2022-07-29T00:51:26;15.70;99.90
51725;DHT22;37801;53.224;6.552;2022-07-29T00:53:53;15.70;99.90
51725;DHT22;37801;53.224;6.552;2022-07-29T00:56:19;15.70;99.90
51725;DHT22;37801;53.224;6.552;2022-07-29T00:58:47;15.70;99.90
51725;DHT22;37801;53.224;6.552;2022-07-29T01:01:13;15.70;99.90
51725;DHT22;37801;53.224;6.552;2022-07-29T01:03:39;15.80;99.90
51725;DHT22;37801;53.224;6.552;2022-07-29T01:06:04;15.80;99.90
51725;DHT22;37801;53.224;6.552;2022-07-29T01:08:31;15.80;99.90
51725;DHT22;37801;53.224;6.552;2022-07-29T01:10:59;15.70;99.90
51725;DHT22;37801;53.224;6.552;2022-07-29T01:13:26;15.70;99.90
51725;DHT22;37801;53.224;6.552;2022-07-29T01:15:58;15.70;99.90
51725;DHT22;37801;53.224;6.552;2022-07-29T01:18:30;15.70;99.90
51725;DHT22;37801;53.224;6.552;2022-07-29T01:21:37;15.70;99.90
51725;DHT22;37801;53.224;6.552;2022-07-29T01:27:04;15.70;99.90
51725;DHT22;37801;53.224;6.552;2022-07-29T01:29:45;15.70;99.90
51725;DHT22;37801;53.224;6.552;2022-07-29T01:32:18;15.70;99.90
51725;DHT22;37801;53.224;6.552;2022-07-29T01:34:52;15.70;99.90
51725;DHT22;37801;53.224;6.552;2022-07-29T01:39:55;15.70;99.90
51725;DHT22;37801;53.224;6.552;2022-07-29T01:42:35;15.70;99.90
51725;DHT22;37801;53.224;6.552;2022-07-29T01:45:10;15.70;99.90
51725;DHT22;37801;53.224;6.552;2022-07-29T01:47:44;15.70;99.90
51725;DHT22;37801;53.224;6.552;2022-07-29T01:50:16;15.70;99.90
51725;DHT22;37801;53.224;6.552;2022-07-29T01:52:43;15.70;99.90
51725;DHT22;37801;53.224;6.552;2022-07-29T01:55:15;15.70;99.90
51725;DHT22;37801;53.224;6.552;2022-07-29T01:57:44;15.70;99.90
51725;DHT22;37801;53.224;6.552;2022-07-29T02:00:12;15.70;99.90
51725;DHT22;37801;53.224;6.552;2022-07-29T02:02:40;15.70;99.90
51725;DHT22;37801;53.224;6.552;2022-07-29T02:05:10;15.70;99.90
51725;DHT22;37801;53.224;6.552;2022-07-29T02:07:37;15.70;99.90
51725;DHT22;37801;53.224;6.552;2022-07-29T02:10:04;15.70;99.90
51725;DHT22;37801;53.224;6.552;2022-07-29T02:12:32;15.70;99.90
51725;DHT22;37801;53.224;6.552;2022-07-29T02:15:02;15.70;99.90
51725;DHT22;37801;53.224;6.552;2022-07-29T02:17:39;15.70;99.90
51725;DHT22;37801;53.224;6.552;2022-07-29T02:20:07;15.70;99.90
51725;DHT22;37801;53.224;6.552;2022-07-29T02:22:37;15.70;99.90
51725;DHT22;37801;53.224;6.552;2022-07-29T02:25:04;15.70;99.90
51725;DHT22;37801;53.224;6.552;2022-07-29T02:27:32;15.70;99.90
51725;DHT22;37801;53.224;6.552;2022-07-29T02:30:01;15.60;99.90
51725;DHT22;37801;53.224;6.552;2022-07-29T02:32:29;15.70;99.90
51725;DHT22;37801;53.224;6.552;2022-07-29T02:34:56;15.60;99.90
51725;DHT22;37801;53.224;6.552;2022-07-29T02:37:24;15.60;99.90
51725;DHT22;37801;53.224;6.552;2022-07-29T02:39:53;15.60;99.90
51725;DHT22;37801;53.224;6.552;2022-07-29T02:42:19;15.60;99.90
51725;DHT22;37801;53.224;6.552;2022-07-29T02:44:46;15.60;99.90
51725;DHT22;37801;53.224;6.552;2022-07-29T02:47:17;15.60;99.90
51725;DHT22;37801;53.224;6.552;2022-07-29T02:50:15;15.60;99.90
51725;DHT22;37801;53.224;6.552;2022-07-29T02:52:45;15.60;99.90
51725;DHT22;37801;53.224;6.552;2022-07-29T02:55:25;15.60;99.90
51725;DHT22;37801;53.224;6.552;2022-07-29T02:58:01;15.60;99.90
51725;DHT22;37801;53.224;6.552;2022-07-29T03:00:29;15.60;99.90
51725;DHT22;37801;53.224;6.552;2022-07-29T03:02:58;15.60;99.90
51725;DHT22;37801;53.224;6.552;2022-07-29T03:05:26;15.60;99.90
51725;DHT22;37801;53.224;6.552;2022-07-29T03:07:57;15.60;99.90
51725;DHT22;37801;53.224;6.552;2022-07-29T03:10:26;15.60;99.90
51725;DHT22;37801;53.224;6.552;2022-07-29T03:12:54;15.60;99.90
51725;DHT22;37801;53.224;6.552;2022-07-29T03:15:20;15.60;99.90
51725;DHT22;37801;53.224;6.552;2022-07-29T03:17:47;15.60;99.90
51725;DHT22;37801;53.224;6.552;2022-07-29T03:20:13;15.50;99.90
51725;DHT22;37801;53.224;6.552;2022-07-29T03:22:40;15.50;99.90
51725;DHT22;37801;53.224;6.552;2022-07-29T03:25:12;15.50;99.90
51725;DHT22;37801;53.224;6.552;2022-07-29T03:27:39;15.50;99.90
51725;DHT22;37801;53.224;6.552;2022-07-29T03:30:06;15.50;99.90
51725;DHT22;37801;53.224;6.552;2022-07-29T03:32:32;15.50;99.90
51725;DHT22;37801;53.224;6.552;2022-07-29T03:34:58;15.50;99.90
51725;DHT22;37801;53.224;6.552;2022-07-29T03:37:24;15.50;99.90
51725;DHT22;37801;53.224;6.552;2022-07-29T03:39:50;15.40;99.90
51725;DHT22;37801;53.224;6.552;2022-07-29T03:42:19;15.50;99.90
51725;DHT22;37801;53.224;6.552;2022-07-29T03:44:48;15.50;99.90
51725;DHT22;37801;53.224;6.552;2022-07-29T03:47:15;15.50;99.90
51725;DHT22;37801;53.224;6.552;2022-07-29T03:49:43;15.50;99.90
51725;DHT22;37801;53.224;6.552;2022-07-29T03:52:10;15.40;99.90
51725;DHT22;37801;53.224;6.552;2022-07-29T03:54:36;15.50;99.90
51725;DHT22;37801;53.224;6.552;2022-07-29T03:57:02;15.50;99.90
51725;DHT22;37801;53.224;6.552;2022-07-29T03:59:30;15.50;99.90
51725;DHT22;37801;53.224;6.552;2022-07-29T04:01:57;15.50;99.90
51725;DHT22;37801;53.224;6.552;2022-07-29T04:04:24;15.50;99.90
51725;DHT22;37801;53.224;6.552;2022-07-29T04:06:50;15.50;99.90
51725;DHT22;37801;53.224;6.552;2022-07-29T04:09:16;15.50;99.90
51725;DHT22;37801;53.224;6.552;2022-07-29T04:11:42;15.40;99.90
51725;DHT22;37801;53.224;6.552;2022-07-29T04:14:09;15.50;99.90
51725;DHT22;37801;53.224;6.552;2022-07-29T04:16:34;15.50;99.90
51725;DHT22;37801;53.224;6.552;2022-07-29T04:19:00;15.50;99.90
51725;DHT22;37801;53.224;6.552;2022-07-29T04:21:26;15.50;99.90
51725;DHT22;37801;53.224;6.552;2022-07-29T04:23:51;15.50;99.90
51725;DHT22;37801;53.224;6.552;2022-07-29T04:26:18;15.50;99.90
51725;DHT22;37801;53.224;6.552;2022-07-29T04:28:44;15.50;99.90
51725;DHT22;37801;53.224;6.552;2022-07-29T04:31:11;15.50;99.90
51725;DHT22;37801;53.224;6.552;2022-07-29T04:33:37;15.50;99.90
51725;DHT22;37801;53.224;6.552;2022-07-29T04:36:03;15.50;99.90
51725;DHT22;37801;53.224;6.552;2022-07-29T04:38:28;15.60;99.90
51725;DHT22;37801;53.224;6.552;2022-07-29T04:40:54;15.60;99.90
51725;DHT22;37801;53.224;6.552;2022-07-29T04:43:20;15.60;99.90
51725;DHT22;37801;53.224;6.552;2022-07-29T04:45:45;15.60;99.90
51725;DHT22;37801;53.224;6.552;2022-07-29T04:48:11;15.60;99.90
51725;DHT22;37801;53.224;6.552;2022-07-29T04:50:40;15.70;99.90
51725;DHT22;37801;53.224;6.552;2022-07-29T04:53:07;15.70;99.90
51725;DHT22;37801;53.224;6.552;2022-07-29T04:55:33;15.70;99.90
51725;DHT22;37801;53.224;6.552;2022-07-29T04:57:59;15.70;99.90
51725;DHT22;37801;53.224;6.552;2022-07-29T05:00:24;15.70;99.90
51725;DHT22;37801;53.224;6.552;2022-07-29T05:02:50;15.70;99.90
51725;DHT22;37801;53.224;6.552;2022-07-29T05:05:16;15.80;99.90
51725;DHT22;37801;53.224;6.552;2022-07-29T05:07:41;15.80;99.90
51725;DHT22;37801;53.224;6.552;2022-07-29T05:10:08;15.80;99.90
51725;DHT22;37801;53.224;6.552;2022-07-29T05:12:33;15.80;99.90
51725;DHT22;37801;53.224;6.552;2022-07-29T05:14:59;15.90;99.90
51725;DHT22;37801;53.224;6.552;2022-07-29T05:17:25;15.90;99.90
51725;DHT22;37801;53.224;6.552;2022-07-29T05:19:51;15.90;99.90
51725;DHT22;37801;53.224;6.552;2022-07-29T05:22:20;15.90;99.90
51725;DHT22;37801;53.224;6.552;2022-07-29T05:24:46;15.90;99.90
51725;DHT22;37801;53.224;6.552;2022-07-29T05:27:12;16.00;99.90
51725;DHT22;37801;53.224;6.552;2022-07-29T05:29:38;16.00;99.90
51725;DHT22;37801;53.224;6.552;2022-07-29T05:32:04;16.00;99.90
51725;DHT22;37801;53.224;6.552;2022-07-29T05:34:30;16.00;99.90
51725;DHT22;37801;53.224;6.552;2022-07-29T05:36:56;16.00;99.90
51725;DHT22;37801;53.224;6.552;2022-07-29T05:39:22;16.10;99.90
51725;DHT22;37801;53.224;6.552;2022-07-29T05:41:49;16.10;99.90
51725;DHT22;37801;53.224;6.552;2022-07-29T05:44:14;16.20;99.90
51725;DHT22;37801;53.224;6.552;2022-07-29T05:46:40;16.20;99.90
51725;DHT22;37801;53.224;6.552;2022-07-29T05:49:06;16.30;99.90
51725;DHT22;37801;53.224;6.552;2022-07-29T05:51:33;16.30;99.90
51725;DHT22;37801;53.224;6.552;2022-07-29T05:53:59;16.30;99.90
51725;DHT22;37801;53.224;6.552;2022-07-29T05:56:25;16.30;99.90
51725;DHT22;37801;53.224;6.552;2022-07-29T05:58:51;16.40;99.90
51725;DHT22;37801;53.224;6.552;2022-07-29T06:01:17;16.40;99.90
51725;DHT22;37801;53.224;6.552;2022-07-29T06:03:43;16.50;99.90
51725;DHT22;37801;53.224;6.552;2022-07-29T06:06:09;16.50;99.90
51725;DHT22;37801;53.224;6.552;2022-07-29T06:08:36;16.60;99.90
51725;DHT22;37801;53.224;6.552;2022-07-29T06:11:02;16.60;99.90
51725;DHT22;37801;53.224;6.552;2022-07-29T06:13:28;16.70;99.90
51725;DHT22;37801;53.224;6.552;2022-07-29T06:15:54;16.80;99.90
51725;DHT22;37801;53.224;6.552;2022-07-29T06:18:21;16.80;99.90
51725;DHT22;37801;53.224;6.552;2022-07-29T06:20:50;16.90;99.90
51725;DHT22;37801;53.224;6.552;2022-07-29T06:23:17;16.90;99.90
51725;DHT22;37801;53.224;6.552;2022-07-29T06:25:43;16.90;99.90
51725;DHT22;37801;53.224;6.552;2022-07-29T06:28:08;17.00;99.90
51725;DHT22;37801;53.224;6.552;2022-07-29T06:30:34;17.00;99.90
51725;DHT22;37801;53.224;6.552;2022-07-29T06:33:00;17.00;99.90
51725;DHT22;37801;53.224;6.552;2022-07-29T06:35:27;17.10;99.90
51725;DHT22;37801;53.224;6.552;2022-07-29T06:37:53;17.10;99.90
51725;DHT22;37801;53.224;6.552;2022-07-29T06:40:19;17.20;99.90
51725;DHT22;37801;53.224;6.552;2022-07-29T06:43:03;17.20;99.90
51725;DHT22;37801;53.224;6.552;2022-07-29T06:45:29;17.20;99.90
51725;DHT22;37801;53.224;6.552;2022-07-29T06:47:54;17.30;99.90
51725;DHT22;37801;53.224;6.552;2022-07-29T06:50:20;17.40;99.90
51725;DHT22;37801;53.224;6.552;2022-07-29T06:52:47;17.40;99.90
51725;DHT22;37801;53.224;6.552;2022-07-29T06:55:13;17.40;99.90
51725;DHT22;37801;53.224;6.552;2022-07-29T06:57:39;17.50;99.90
51725;DHT22;37801;53.224;6.552;2022-07-29T07:00:06;17.60;99.90
51725;DHT22;37801;53.224;6.552;2022-07-29T07:02:32;17.70;99.90
51725;DHT22;37801;53.224;6.552;2022-07-29T07:04:58;17.80;99.90
51725;DHT22;37801;53.224;6.552;2022-07-29T07:07:24;17.80;99.90
51725;DHT22;37801;53.224;6.552;2022-07-29T07:09:50;17.90;99.90
51725;DHT22;37801;53.224;6.552;2022-07-29T07:12:16;18.00;99.90
51725;DHT22;37801;53.224;6.552;2022-07-29T07:14:41;18.00;99.90
51725;DHT22;37801;53.224;6.552;2022-07-29T07:17:07;18.10;99.90
51725;DHT22;37801;53.224;6.552;2022-07-29T07:19:33;18.10;99.90
51725;DHT22;37801;53.224;6.552;2022-07-29T07:21:59;18.20;99.90
51725;DHT22;37801;53.224;6.552;2022-07-29T07:24:25;18.30;99.90
51725;DHT22;37801;53.224;6.552;2022-07-29T07:26:50;18.30;99.90
51725;DHT22;37801;53.224;6.552;2022-07-29T07:29:16;18.40;99.90
51725;DHT22;37801;53.224;6.552;2022-07-29T07:31:42;18.40;99.90
51725;DHT22;37801;53.224;6.552;2022-07-29T07:34:08;18.50;99.90
51725;DHT22;37801;53.224;6.552;2022-07-29T07:36:34;18.50;99.90
51725;DHT22;37801;53.224;6.552;2022-07-29T07:39:00;18.50;99.90
51725;DHT22;37801;53.224;6.552;2022-07-29T07:41:26;18.50;99.90
51725;DHT22;37801;53.224;6.552;2022-07-29T07:43:52;18.60;99.90
51725;DHT22;37801;53.224;6.552;2022-07-29T07:46:17;18.60;99.90
51725;DHT22;37801;53.224;6.552;2022-07-29T07:48:43;18.70;99.90
51725;DHT22;37801;53.224;6.552;2022-07-29T07:51:09;18.80;99.90
51725;DHT22;37801;53.224;6.552;2022-07-29T07:53:35;18.80;99.90
51725;DHT22;37801;53.224;6.552;2022-07-29T07:56:01;18.90;99.90
51725;DHT22;37801;53.224;6.552;2022-07-29T07:58:26;18.90;99.90
51725;DHT22;37801;53.224;6.552;2022-07-29T08:00:52;19.00;99.90
51725;DHT22;37801;53.224;6.552;2022-07-29T08:03:18;19.00;99.90
51725;DHT22;37801;53.224;6.552;2022-07-29T08:05:44;19.00;99.90
51725;DHT22;37801;53.224;6.552;2022-07-29T08:08:10;19.00;99.90
51725;DHT22;37801;53.224;6.552;2022-07-29T08:10:35;19.10;99.90
51725;DHT22;37801;53.224;6.552;2022-07-29T08:13:23;19.10;99.90
51725;DHT22;37801;53.224;6.552;2022-07-29T08:15:54;19.20;99.90
51725;DHT22;37801;53.224;6.552;2022-07-29T08:18:27;19.20;99.90
51725;DHT22;37801;53.224;6.552;2022-07-29T08:20:54;19.30;99.90
51725;DHT22;37801;53.224;6.552;2022-07-29T08:23:20;19.30;99.90
51725;DHT22;37801;53.224;6.552;2022-07-29T08:25:46;19.30;99.90
51725;DHT22;37801;53.224;6.552;2022-07-29T08:28:12;19.40;99.90
51725;DHT22;37801;53.224;6.552;2022-07-29T08:30:38;19.40;99.90
51725;DHT22;37801;53.224;6.552;2022-07-29T08:33:04;19.50;99.90
51725;DHT22;37801;53.224;6.552;2022-07-29T08:35:29;19.60;99.90
51725;DHT22;37801;53.224;6.552;2022-07-29T08:37:55;19.60;99.90
51725;DHT22;37801;53.224;6.552;2022-07-29T08:40:22;19.60;99.90
51725;DHT22;37801;53.224;6.552;2022-07-29T08:42:49;19.60;99.90
51725;DHT22;37801;53.224;6.552;2022-07-29T08:45:15;19.70;99.90
51725;DHT22;37801;53.224;6.552;2022-07-29T08:47:44;19.80;99.90
51725;DHT22;37801;53.224;6.552;2022-07-29T08:50:10;19.90;99.90
51725;DHT22;37801;53.224;6.552;2022-07-29T08:52:38;19.90;99.90
51725;DHT22;37801;53.224;6.552;2022-07-29T08:55:08;19.90;99.90
51725;DHT22;37801;53.224;6.552;2022-07-29T08:57:35;19.90;99.90
51725;DHT22;37801;53.224;6.552;2022-07-29T09:00:04;19.90;99.90
51725;DHT22;37801;53.224;6.552;2022-07-29T09:02:35;19.90;99.90
51725;DHT22;37801;53.224;6.552;2022-07-29T09:05:04;20.00;99.90
51725;DHT22;37801;53.224;6.552;2022-07-29T09:07:30;20.00;99.90
51725;DHT22;37801;53.224;6.552;2022-07-29T09:09:56;20.00;99.90
51725;DHT22;37801;53.224;6.552;2022-07-29T09:12:22;20.00;99.90
51725;DHT22;37801;53.224;6.552;2022-07-29T09:14:50;20.00;99.90
51725;DHT22;37801;53.224;6.552;2022-07-29T09:17:16;20.00;99.90
51725;DHT22;37801;53.224;6.552;2022-07-29T09:19:43;20.10;99.90
51725;DHT22;37801;53.224;6.552;2022-07-29T09:22:09;20.10;99.90
51725;DHT22;37801;53.224;6.552;2022-07-29T09:27:22;20.10;99.90
51725;DHT22;37801;53.224;6.552;2022-07-29T09:29:56;20.20;99.90
51725;DHT22;37801;53.224;6.552;2022-07-29T09:32:22;20.20;99.90
51725;DHT22;37801;53.224;6.552;2022-07-29T09:34:48;20.20;99.90
51725;DHT22;37801;53.224;6.552;2022-07-29T09:37:26;20.30;99.90
51725;DHT22;37801;53.224;6.552;2022-07-29T09:39:52;20.30;99.90
51725;DHT22;37801;53.224;6.552;2022-07-29T09:42:28;20.30;99.90
51725;DHT22;37801;53.224;6.552;2022-07-29T09:44:54;20.30;99.90
51725;DHT22;37801;53.224;6.552;2022-07-29T09:47:20;20.40;99.90
51725;DHT22;37801;53.224;6.552;2022-07-29T09:49:58;20.40;99.90
51725;DHT22;37801;53.224;6.552;2022-07-29T09:52:29;20.30;99.90
51725;DHT22;37801;53.224;6.552;2022-07-29T09:55:08;20.20;99.90
51725;DHT22;37801;53.224;6.552;2022-07-29T09:57:35;20.20;99.90
51725;DHT22;37801;53.224;6.552;2022-07-29T10:00:08;20.20;99.90
51725;DHT22;37801;53.224;6.552;2022-07-29T10:02:35;20.10;99.90
51725;DHT22;37801;53.224;6.552;2022-07-29T10:05:04;20.10;99.90
51725;DHT22;37801;53.224;6.552;2022-07-29T10:07:47;20.10;99.90
51725;DHT22;37801;53.224;6.552;2022-07-29T10:10:25;20.10;99.90
51725;DHT22;37801;53.224;6.552;2022-07-29T10:12:56;20.00;99.90
51725;DHT22;37801;53.224;6.552;2022-07-29T10:15:24;20.00;99.90
51725;DHT22;37801;53.224;6.552;2022-07-29T10:17:51;20.00;99.90
51725;DHT22;37801;53.224;6.552;2022-07-29T10:20:17;20.10;99.90
51725;DHT22;37801;53.224;6.552;2022-07-29T10:22:43;20.10;99.90
51725;DHT22;37801;53.224;6.552;2022-07-29T10:25:10;20.10;99.90
51725;DHT22;37801;53.224;6.552;2022-07-29T10:27:36;20.10;99.90
51725;DHT22;37801;53.224;6.552;2022-07-29T10:30:03;20.20;99.90
51725;DHT22;37801;53.224;6.552;2022-07-29T10:32:54;20.20;99.90
51725;DHT22;37801;53.224;6.552;2022-07-29T10:35:48;20.20;99.90
51725;DHT22;37801;53.224;6.552;2022-07-29T10:38:43;20.30;99.90
51725;DHT22;37801;53.224;6.552;2022-07-29T10:44:05;20.50;99.90
51725;DHT22;37801;53.224;6.552;2022-07-29T10:46:36;20.60;99.90
51725;DHT22;37801;53.224;6.552;2022-07-29T10:49:18;20.60;99.90
51725;DHT22;37801;53.224;6.552;2022-07-29T10:52:06;20.60;99.90
51725;DHT22;37801;53.224;6.552;2022-07-29T10:57:24;20.60;99.90
51725;DHT22;37801;53.224;6.552;2022-07-29T11:05:06;20.50;99.90
51725;DHT22;37801;53.224;6.552;2022-07-29T11:07:33;20.50;99.90
51725;DHT22;37801;53.224;6.552;2022-07-29T11:15:09;20.30;99.90
51725;DHT22;37801;53.224;6.552;2022-07-29T11:20:42;20.20;99.90
51725;DHT22;37801;53.224;6.552;2022-07-29T11:23:27;20.10;99.90
51725;DHT22;37801;53.224;6.552;2022-07-29T11:29:03;20.00;99.90
51725;DHT22;37801;53.224;6.552;2022-07-29T11:31:40;20.10;99.90
51725;DHT22;37801;53.224;6.552;2022-07-29T11:34:19;20.20;99.90
51725;DHT22;37801;53.224;6.552;2022-07-29T11:39:40;20.30;99.90
51725;DHT22;37801;53.224;6.552;2022-07-29T11:45:13;20.50;99.90
51725;DHT22;37801;53.224;6.552;2022-07-29T11:47:46;20.70;99.90
51725;DHT22;37801;53.224;6.552;2022-07-29T11:50:15;20.90;99.90
51725;DHT22;37801;53.224;6.552;2022-07-29T11:52:42;21.10;99.90
51725;DHT22;37801;53.224;6.552;2022-07-29T11:55:12;21.30;99.90
51725;DHT22;37801;53.224;6.552;2022-07-29T11:57:48;21.50;99.90
51725;DHT22;37801;53.224;6.552;2022-07-29T12:03:02;21.80;99.90
51725;DHT22;37801;53.224;6.552;2022-07-29T12:05:40;21.80;99.90
51725;DHT22;37801;53.224;6.552;2022-07-29T12:10:37;22.00;99.90
51725;DHT22;37801;53.224;6.552;2022-07-29T12:13:04;22.10;99.90
51725;DHT22;37801;53.224;6.552;2022-07-29T12:15:30;22.20;99.90
51725;DHT22;37801;53.224;6.552;2022-07-29T12:17:56;22.30;99.90
51725;DHT22;37801;53.224;6.552;2022-07-29T12:20:27;22.40;99.90
51725;DHT22;37801;53.224;6.552;2022-07-29T12:22:53;22.40;99.90
51725;DHT22;37801;53.224;6.552;2022-07-29T12:25:21;22.50;99.90
51725;DHT22;37801;53.224;6.552;2022-07-29T12:27:47;22.50;99.90
51725;DHT22;37801;53.224;6.552;2022-07-29T12:30:22;22.50;99.90
51725;DHT22;37801;53.224;6.552;2022-07-29T12:32:49;22.50;99.90
51725;DHT22;37801;53.224;6.552;2022-07-29T12:35:16;22.50;99.90
51725;DHT22;37801;53.224;6.552;2022-07-29T12:37:44;22.50;99.90
51725;DHT22;37801;53.224;6.552;2022-07-29T12:40:13;22.50;99.90
51725;DHT22;37801;53.224;6.552;2022-07-29T12:42:39;22.50;99.90
51725;DHT22;37801;53.224;6.552;2022-07-29T12:45:06;22.60;99.90
51725;DHT22;37801;53.224;6.552;2022-07-29T12:47:32;22.60;99.90
51725;DHT22;37801;53.224;6.552;2022-07-29T12:50:13;22.60;99.90
51725;DHT22;37801;53.224;6.552;2022-07-29T12:52:44;22.60;99.90
51725;DHT22;37801;53.224;6.552;2022-07-29T12:55:11;22.60;99.90
51725;DHT22;37801;53.224;6.552;2022-07-29T12:57:47;22.60;99.90
51725;DHT22;37801;53.224;6.552;2022-07-29T13:00:15;22.70;99.90
51725;DHT22;37801;53.224;6.552;2022-07-29T13:02:42;22.70;99.90
51725;DHT22;37801;53.224;6.552;2022-07-29T13:05:09;22.70;99.90
51725;DHT22;37801;53.224;6.552;2022-07-29T13:07:37;22.80;99.90
51725;DHT22;37801;53.224;6.552;2022-07-29T13:10:14;22.80;99.90
51725;DHT22;37801;53.224;6.552;2022-07-29T13:13:01;22.80;99.90
51725;DHT22;37801;53.224;6.552;2022-07-29T13:15:27;22.90;99.90
51725;DHT22;37801;53.224;6.552;2022-07-29T13:17:53;22.90;99.90
51725;DHT22;37801;53.224;6.552;2022-07-29T13:20:23;22.90;99.90
51725;DHT22;37801;53.224;6.552;2022-07-29T13:22:49;22.80;99.90
51725;DHT22;37801;53.224;6.552;2022-07-29T13:25:30;22.80;99.90
51725;DHT22;37801;53.224;6.552;2022-07-29T13:27:58;22.80;99.90
51725;DHT22;37801;53.224;6.552;2022-07-29T13:30:24;22.80;99.90
51725;DHT22;37801;53.224;6.552;2022-07-29T13:32:51;22.80;99.90
51725;DHT22;37801;53.224;6.552;2022-07-29T13:35:18;22.80;99.90
51725;DHT22;37801;53.224;6.552;2022-07-29T13:37:44;22.80;99.90
51725;DHT22;37801;53.224;6.552;2022-07-29T13:40:11;22.80;99.90
51725;DHT22;37801;53.224;6.552;2022-07-29T13:42:37;22.80;99.90
51725;DHT22;37801;53.224;6.552;2022-07-29T13:45:04;22.80;99.90
51725;DHT22;37801;53.224;6.552;2022-07-29T13:47:31;22.80;99.90
51725;DHT22;37801;53.224;6.552;2022-07-29T13:49:57;22.90;99.90
51725;DHT22;37801;53.224;6.552;2022-07-29T13:52:23;22.90;99.90
51725;DHT22;37801;53.224;6.552;2022-07-29T13:54:49;22.90;99.90
51725;DHT22;37801;53.224;6.552;2022-07-29T13:57:14;23.00;99.90
51725;DHT22;37801;53.224;6.552;2022-07-29T13:59:41;22.90;99.90
51725;DHT22;37801;53.224;6.552;2022-07-29T14:02:08;23.00;99.90
51725;DHT22;37801;53.224;6.552;2022-07-29T14:04:34;23.00;99.90
51725;DHT22;37801;53.224;6.552;2022-07-29T14:07:00;23.10;99.90
51725;DHT22;37801;53.224;6.552;2022-07-29T14:09:26;23.10;99.90
51725;DHT22;37801;53.224;6.552;2022-07-29T14:11:52;23.10;99.90
51725;DHT22;37801;53.224;6.552;2022-07-29T14:14:19;23.10;99.90
51725;DHT22;37801;53.224;6.552;2022-07-29T14:16:45;23.10;99.90
51725;DHT22;37801;53.224;6.552;2022-07-29T14:19:11;23.20;99.90
51725;DHT22;37801;53.224;6.552;2022-07-29T14:21:37;23.20;99.90
51725;DHT22;37801;53.224;6.552;2022-07-29T14:24:04;23.20;99.90
51725;DHT22;37801;53.224;6.552;2022-07-29T14:26:29;23.20;99.90
51725;DHT22;37801;53.224;6.552;2022-07-29T14:28:55;23.20;99.90
51725;DHT22;37801;53.224;6.552;2022-07-29T14:31:21;23.20;99.30
51725;DHT22;37801;53.224;6.552;2022-07-29T14:33:47;23.20;99.90
51725;DHT22;37801;53.224;6.552;2022-07-29T14:36:12;23.30;99.00
51725;DHT22;37801;53.224;6.552;2022-07-29T14:38:38;23.30;99.90
51725;DHT22;37801;53.224;6.552;2022-07-29T14:41:06;23.30;99.70
51725;DHT22;37801;53.224;6.552;2022-07-29T14:43:32;23.40;99.90
51725;DHT22;37801;53.224;6.552;2022-07-29T14:45:58;23.40;99.80
51725;DHT22;37801;53.224;6.552;2022-07-29T14:48:24;23.40;99.90
51725;DHT22;37801;53.224;6.552;2022-07-29T14:50:49;23.40;99.80
51725;DHT22;37801;53.224;6.552;2022-07-29T14:53:15;23.50;98.70
51725;DHT22;37801;53.224;6.552;2022-07-29T14:55:41;23.50;99.30
51725;DHT22;37801;53.224;6.552;2022-07-29T14:58:07;23.60;99.90
51725;DHT22;37801;53.224;6.552;2022-07-29T15:00:33;23.60;99.90
51725;DHT22;37801;53.224;6.552;2022-07-29T15:03:02;23.70;99.90
51725;DHT22;37801;53.224;6.552;2022-07-29T15:05:29;23.70;99.60
51725;DHT22;37801;53.224;6.552;2022-07-29T15:07:55;23.70;98.00
51725;DHT22;37801;53.224;6.552;2022-07-29T15:10:21;23.70;99.20
51725;DHT22;37801;53.224;6.552;2022-07-29T15:12:47;23.70;98.50
51725;DHT22;37801;53.224;6.552;2022-07-29T15:15:12;23.60;98.20
51725;DHT22;37801;53.224;6.552;2022-07-29T15:17:38;23.60;99.70
51725;DHT22;37801;53.224;6.552;2022-07-29T15:20:04;23.60;99.40
51725;DHT22;37801;53.224;6.552;2022-07-29T15:22:30;23.60;99.60
51725;DHT22;37801;53.224;6.552;2022-07-29T15:24:56;23.60;98.90
51725;DHT22;37801;53.224;6.552;2022-07-29T15:27:21;23.60;99.90
51725;DHT22;37801;53.224;6.552;2022-07-29T15:29:47;23.60;99.00
51725;DHT22;37801;53.224;6.552;2022-07-29T15:32:13;23.60;99.30
51725;DHT22;37801;53.224;6.552;2022-07-29T15:34:39;23.60;99.10
51725;DHT22;37801;53.224;6.552;2022-07-29T15:37:05;23.60;96.20
51725;DHT22;37801;53.224;6.552;2022-07-29T15:39:31;23.70;99.70
51725;DHT22;37801;53.224;6.552;2022-07-29T15:41:57;23.70;95.70
51725;DHT22;37801;53.224;6.552;2022-07-29T15:44:24;23.70;94.70
51725;DHT22;37801;53.224;6.552;2022-07-29T15:46:50;23.60;98.10
51725;DHT22;37801;53.224;6.552;2022-07-29T15:49:29;23.50;97.40
51725;DHT22;37801;53.224;6.552;2022-07-29T15:52:02;23.50;96.80
51725;DHT22;37801;53.224;6.552;2022-07-29T15:54:29;23.50;96.00
51725;DHT22;37801;53.224;6.552;2022-07-29T15:56:55;23.50;99.80
51725;DHT22;37801;53.224;6.552;2022-07-29T15:59:21;23.50;98.20
51725;DHT22;37801;53.224;6.552;2022-07-29T16:01:47;23.50;95.10
51725;DHT22;37801;53.224;6.552;2022-07-29T16:04:14;23.50;99.10
51725;DHT22;37801;53.224;6.552;2022-07-29T16:06:39;23.50;96.80
51725;DHT22;37801;53.224;6.552;2022-07-29T16:09:05;23.40;97.00
51725;DHT22;37801;53.224;6.552;2022-07-29T16:11:31;23.40;95.70
51725;DHT22;37801;53.224;6.552;2022-07-29T16:13:58;23.40;95.80
51725;DHT22;37801;53.224;6.552;2022-07-29T16:16:23;23.40;95.50